9G3 weather

Akron Airport
Akron, New York, United States

Public forecast

Using degrees Fahrenheit for public forecast. Weather courtesy of forecast.io.

METAR (pilot weather report)

Closest report is Buffalo Niagara International Airport, 12.0 nm (22.2 km) WSW. Retrieved 2019/04/19 23:34 UTC (16 minutes ago):

KBUF 192334Z 03014KT 1 3/4SM -RA BR BKN006 OVC011 06/05 A2967

TAF (pilot weather forecast)

Closest forecast is Buffalo Niagara International Airport, 12.0 nm (22.2 km) WSW. Retrieved 2019/04/19 18:30 UTC (5 hours ago):

TAF KBUF 191729Z 1918/2018 02007KT P6SM -SHRA OVC050 FM192100 02012KT 4SM -RA BR OVC007 FM192300 03014KT 2SM RA BR OVC004 FM200200 04013KT 4SM -RA BR OVC007 FM201400 05013KT P6SM VCSH OVC015 FM201700 07013KT P6SM BKN035